Latest Coastal Weather Observations for Adelaide Airport

IDS60701

Issued at 7:01 am CST Thursday 25 August 2016 (issued every 10 minutes, with the page automatically refreshed every 10 minutes)

About coastal observations | Map of coastal stations | Coastal observations for SA | Marine services | Other Formats
Station Details ID: 023034 Name: ADELAIDE AIRPORT Lat: -34.95 Lon: 138.52 Height: 2.0 m
Data from the previous 72 hours. | See also: Recent months at Adelaide Airport
Date/Time
CST
Temp
°C
Wind Pressure Rain since
9am
mm
Weather Cloud Vis
km
Sea
Height
m
Swell
Dir  Spd
kts
Gust
kts
hPa Trend Height
m
Period
s
Dir
25/06:30am 4.0 ESE 3 5 1019.1 - 0.0 - - 10 - - - -
25/06:00am 4.7 ESE 4 5 1018.7 R 0.0 Fine Clear 30 - - - -
25/05:30am 4.7 ESE 4 4 1018.3 - 0.0 - - 10 - - - -
25/05:00am 5.4 CALM 0 0 1017.9 - 0.0 - - 10 - - - -
25/04:30am 6.0 S 4 5 1017.7 - 0.0 - - 10 - - - -
25/04:00am 6.3 SSW 5 5 1017.5 - 0.0 - - 10 - - - -
25/03:30am 6.8 SSW 5 6 1017.4 - 0.0 - - 10 - - - -
25/03:00am 6.3 SW 2 6 1017.3 R 0.0 Fine Clear 30 - - - -
25/02:30am 6.0 ENE 4 7 1017.1 - 0.0 - - 10 - - - -
25/02:00am 6.3 E 5 6 1017.1 - 0.0 - - 10 - - - -
25/01:30am 7.9 E 5 6 1017.1 - 0.0 - - 10 - - - -
25/01:00am 7.7 ENE 3 6 1017.1 - 0.0 - - 10 - - - -
25/12:30am 8.5 ESE 5 8 1017.1 - 0.0 - - 10 - - - -
25/12:00am 9.2 ESE 6 8 1017.1 F 0.0 Fine Clear 30 - - - -
 
Date/Time
CST
Temp
°C
Wind Pressure Rain since
9am
mm
Weather Cloud Vis
km
Sea
Height
m
Swell
Dir  Spd
kts
Gust
kts
hPa Trend Height
m
Period
s
Dir
24/11:30pm 9.3 SE 6 8 1017.2 - 0.0 - - 10 - - - -
24/11:00pm 9.0 ESE 5 6 1017.2 - 0.0 - - 10 - - - -
24/10:30pm 9.7 ESE 9 13 1017.2 - 0.0 - - 10 - - - -
24/10:00pm 8.8 ESE 7 9 1017.3 - 0.0 - Partly cloudy 10 - - - -
24/09:30pm 9.8 ESE 8 10 1017.2 - 0.0 - Partly cloudy 10 - - - -
24/09:00pm 8.9 E 4 5 1017.1 R 0.0 Fine Mostly clear 30 - - - -
24/08:30pm 9.6 SE 6 8 1016.8 - 0.0 - - 10 - - - -
24/08:00pm 10.1 SE 8 10 1016.6 - 0.0 - - 10 - - - -
24/07:30pm 10.7 SE 7 10 1016.5 - 0.0 - - 10 - - - -
24/07:00pm 10.9 SE 7 9 1016.3 - 0.0 - - 10 - - - -
24/06:30pm 11.3 ESE 6 9 1015.9 - 0.0 - Partly cloudy 10 - - - -
24/06:00pm 12.4 ESE 9 11 1015.5 R 0.0 Fine Mostly clear 35 - - - -
24/05:30pm 12.9 SE 6 10 1015.4 - 0.0 - Mostly clear 10 - - - -
24/05:00pm 13.9 ESE 5 7 1015.0 - 0.0 - Partly cloudy 10 - - - -
24/04:30pm 13.5 E 7 8 1014.7 - 0.0 - Mostly clear 10 - - - -
24/04:00pm 13.9 SSE 8 13 1014.6 - 0.0 - Mostly clear 10 - - - -
24/03:30pm 14.5 SW 10 14 1014.5 - 0.0 - Mostly clear 10 - - - -
24/03:00pm 14.4 W 10 14 1014.4 R 0.0 Fine Mostly clear 35 - - - -
24/02:30pm 14.6 W 10 12 1014.5 - 0.0 - Mostly clear 10 - - - -
24/02:00pm 14.5 W 10 13 1014.4 - 0.0 - Mostly clear 10 - - - -
24/01:30pm 13.9 W 12 15 1014.8 - 0.0 - Mostly clear 10 - - - -
24/01:00pm 14.1 W 10 14 1015.1 - 0.0 - Mostly clear 10 - - - -
24/12:30pm 14.0 WNW 11 13 1015.3 - 0.0 - Mostly clear 10 - - - -
24/12:00pm 13.3 WNW 10 12 1015.5 R 0.0 Fine Mostly clear 30 - - - -
24/11:30am 13.5 WNW 9 11 1015.6 - 0.0 - Mostly clear 10 - - - -
24/11:00am 13.8 WNW 7 9 1015.8 - 0.0 - Mostly clear 10 - - - -
24/10:30am 13.6 W 6 8 1016.0 - 0.0 - Mostly clear 10 - - - -
24/10:00am 13.5 W 5 7 1016.1 - 0.0 - Mostly clear 10 - - - -
24/09:30am 13.1 CALM 0 0 1016.1 - 0.0 - Mostly clear 10 - - - -
24/09:00am 10.7 CALM 0 0 1016.2 F 0.0 Fine Mostly cloudy 30 - - - -
24/08:30am 9.0 NE 3 5 1016.3 - 0.0 - Cloudy 10 - - - -
24/08:00am 7.9 NE 3 5 1016.2 - 0.0 - Partly cloudy 10 - - - -
24/07:30am 6.9 NNE 4 5 1015.9 - 0.0 - Partly cloudy 10 - - - -
24/07:00am 6.0 CALM 0 0 1015.9 - 0.0 - Partly cloudy 10 - - - -
24/06:30am 5.8 CALM 0 0 1015.7 - 0.0 - Mostly clear 10 - - - -
24/06:00am 5.4 CALM 0 0 1015.5 R 0.0 Fine Partly cloudy 30 - - - -
24/05:30am 5.5 CALM 0 0 1015.4 - 0.0 - Mostly clear 10 - - - -
24/05:00am 5.4 CALM 0 0 1015.2 - 0.0 - Mostly clear 10 - - - -
24/04:30am 5.3 CALM 0 0 1015.1 - 0.0 - - 10 - - - -
24/04:00am 6.1 CALM 0 0 1015.0 - 0.0 - - 10 - - - -
24/03:30am 6.6 CALM 0 0 1014.9 - 0.0 - - 10 - - - -
24/03:00am 6.6 CALM 0 0 1015.1 F 0.0 Fine Mostly clear 30 - - - -
24/02:30am 6.3 WSW 4 5 1015.4 - 0.0 - Partly cloudy 10 - - - -
24/02:00am 6.3 WNW 2 4 1015.4 - 0.0 - - 10 - - - -
24/01:30am 6.5 CALM 0 0 1015.5 - 0.0 - - 10 - - - -
24/01:00am 7.1 WNW 3 3 1015.7 - 0.0 - - 10 - - - -
24/12:30am 7.4 W 4 4 1015.7 - 0.0 - - 10 - - - -
24/12:00am 7.8 WNW 4 4 1015.9 F 0.0 Fine Mostly clear 30 - - - -
 
Date/Time
CST
Temp
°C
Wind Pressure Rain since
9am
mm
Weather Cloud Vis
km
Sea
Height
m
Swell
Dir  Spd
kts
Gust
kts
hPa Trend Height
m
Period
s
Dir
23/11:30pm 8.4 CALM 0 5 1016.1 - 0.0 - - 10 - - - -
23/11:00pm 9.1 CALM 0 0 1016.2 - 0.0 - Partly cloudy 10 - - - -
23/10:30pm 10.1 CALM 0 0 1016.4 - 0.0 - Cloudy 10 - - - -
23/10:00pm 10.9 ENE 4 4 1016.4 - 0.0 - Partly cloudy 10 - - - -
23/09:30pm 10.1 ESE 6 8 1016.3 - 0.0 - Mostly clear 10 - - - -
23/09:00pm 10.0 SE 6 7 1016.4 R 0.0 Fine Mostly clear 30 - - - -
23/08:30pm 10.3 SE 8 10 1016.2 - 0.0 - Mostly clear 10 - - - -
23/08:00pm 10.5 ESE 8 10 1016.0 - 0.0 - Mostly clear 10 - - - -
23/07:30pm 10.6 ESE 6 8 1016.0 - 0.0 - - 10 - - - -
23/07:00pm 10.9 ESE 7 8 1015.9 - 0.0 - Mostly clear 10 - - - -
23/06:30pm 11.7 ESE 6 7 1015.8 - 0.0 - Mostly clear 10 - - - -
23/06:09pm 12.2 SE 7 9 1015.6 - 0.0 - Mostly clear 10 - - - -
23/06:00pm 12.6 SE 8 11 1015.5 F 0.0 Thunder Partly cloudy 30 - - - -
23/05:54pm 12.7 SSE 8 10 1015.4 - 0.0 Thunder Mostly clear 10 - - - -
23/05:30pm 12.7 SSW 8 10 1015.3 - 0.0 - Mostly clear 10 - - - -
23/05:00pm 12.9 SSW 10 13 1015.5 - 0.0 - Mostly clear 10 - - - -
23/04:30pm 12.8 SSW 8 10 1015.5 - 0.0 - Mostly clear 10 - - - -
23/04:00pm 13.0 SW 10 12 1015.5 - 0.0 - Mostly clear 10 - - - -
23/03:30pm 13.5 SW 10 13 1015.5 - 0.0 - Mostly clear 10 - - - -
23/03:00pm 13.4 SW 10 13 1015.5 R 0.0 Distant precip. Mostly cloudy 30 - - - -
23/02:30pm 13.5 WSW 10 13 1015.7 - 0.0 - Mostly clear 10 - - - -
23/02:00pm 13.7 WSW 9 11 1015.8 - 0.0 - Mostly clear 10 - - - -
23/01:30pm 13.3 SW 9 11 1015.8 - 0.0 - Mostly clear 10 - - - -
23/01:00pm 13.0 WSW 8 10 1016.1 - 0.0 - Mostly clear 10 - - - -
23/12:30pm 12.8 W 9 11 1016.5 - 0.0 - Mostly clear 10 - - - -
23/12:00pm 13.2 WSW 8 10 1016.8 R 0.0 Fine Mostly cloudy 30 - - - -
23/11:30am 13.1 SW 7 8 1017.1 - 0.0 - Mostly clear 10 - - - -
23/11:00am 12.4 WSW 6 8 1017.4 - 0.0 - Mostly clear 10 - - - -
23/10:30am 12.4 WSW 5 7 1017.5 - 0.0 - Mostly clear 10 - - - -
23/10:00am 12.2 WSW 4 6 1017.5 - 0.0 - Mostly clear 10 - - - -
23/09:30am 12.0 NW 4 6 1017.7 - 0.0 - Mostly clear 10 - - - -
23/09:00am 11.7 NW 4 5 1017.6 F 0.0 Haze Mostly cloudy 30 - - - -
23/08:30am 10.6 NNW 3 5 1017.3 - 0.0 - Mostly clear 10 - - - -
23/08:00am 8.6 CALM 0 0 1016.9 - 0.0 - Mostly clear 10 - - - -
23/07:30am 6.3 NE 4 5 1016.6 - 0.0 - Mostly clear 10 - - - -
23/07:00am 4.7 NE 4 4 1016.6 - 0.0 - Mostly clear 10 - - - -
23/06:30am 5.0 NE 5 5 1016.5 - 0.0 - - 10 - - - -
23/06:00am 4.7 CALM 0 0 1016.3 S 0.0 Fine Clear 35 - - - -
23/05:30am 5.0 CALM 0 0 1016.2 - 0.0 - - 10 - - - -
23/05:00am 4.9 CALM 0 0 1016.4 - 0.0 - Mostly clear 10 - - - -
23/04:30am 5.0 CALM 0 0 1016.3 - 0.0 - Mostly clear 10 - - - -
23/04:00am 4.7 NE 4 5 1016.0 - 0.0 - Mostly clear 10 - - - -
23/03:30am 5.6 CALM 0 0 1016.0 - 0.0 - Mostly clear 10 - - - -
23/03:00am 6.1 CALM 0 0 1016.0 R 0.0 Fine Mostly clear 30 - - - -
23/02:30am 5.9 CALM 0 0 1016.0 - 0.0 - Mostly clear 10 - - - -
23/02:00am 5.8 CALM 0 0 1016.1 - 0.0 - Mostly clear 10 - - - -
23/01:30am 5.6 CALM 0 0 1016.1 - 0.0 - Mostly clear 10 - - - -
23/01:00am 6.7 CALM 0 0 1016.1 - 0.0 - Mostly clear 10 - - - -
23/12:30am 7.0 CALM 0 0 1016.0 - 0.0 - Mostly clear 10 - - - -
23/12:00am 7.4 CALM 0 0 1015.9 F 0.0 Fine Mostly clear 30 - - - -
 
Date/Time
CST
Temp
°C
Wind Pressure Rain since
9am
mm
Weather Cloud Vis
km
Sea
Height
m
Swell
Dir  Spd
kts
Gust
kts
hPa Trend Height
m
Period
s
Dir
22/11:30pm 7.9 CALM 0 0 1016.1 - 0.0 - Mostly clear 10 - - - -
22/11:00pm 8.4 CALM 0 0 1016.2 - 0.0 - Mostly clear 10 - - - -
22/10:30pm 9.3 E 4 5 1016.3 - 0.0 - Mostly clear 10 - - - -
22/10:00pm 9.0 ESE 5 6 1016.3 - 0.0 - - 10 - - - -
22/09:30pm 8.5 ESE 6 7 1016.2 - 0.0 - Mostly clear 10 - - - -
22/09:00pm 9.2 SE 4 5 1016.1 R 0.0 Fine Mostly clear 30 - - - -
22/08:30pm 9.7 SSE 4 5 1015.9 - 0.0 - - 10 - - - -
22/08:00pm 10.3 SSE 6 8 1015.5 - 0.0 - - 10 - - - -
22/07:30pm 10.4 SSE 6 8 1015.3 - 0.0 - - 10 - - - -
22/07:00pm 11.0 SSW 6 7 1015.2 - 0.0 - - 10 - - - -
22/06:30pm 11.8 SSW 6 8 1014.8 - 0.0 - - 10 - - - -
22/06:00pm 12.3 SSW 7 8 1014.6 R 0.0 Fine Mostly clear 30 - - - -
22/05:30pm 12.5 SSW 8 10 1014.4 - 0.0 - Mostly clear 10 - - - -
22/05:00pm 13.1 SSW 9 10 1014.2 - 0.0 - Mostly clear 10 - - - -
22/04:30pm 13.5 SSW 10 12 1014.0 - 0.0 - Mostly clear 10 - - - -
22/04:00pm 13.8 SW 10 13 1013.6 - 0.0 - Mostly clear 10 - - - -
22/03:30pm 14.4 SW 9 11 1013.4 - 0.0 - Mostly clear 10 - - - -
22/03:00pm 14.2 SW 9 11 1013.4 R 0.0 Fine Mostly clear 30 - - - -
22/02:30pm 14.2 SW 10 12 1013.3 - 0.0 - Mostly clear 10 - - - -
22/02:00pm 14.0 SW 9 10 1013.4 - 0.0 - Mostly clear 10 - - - -
22/01:30pm 14.5 WSW 8 10 1013.5 - 0.0 - Mostly clear 10 - - - -
22/01:00pm 14.1 WSW 9 10 1013.6 - 0.0 - Mostly clear 10 - - - -
22/12:30pm 13.9 WSW 8 10 1014.0 - 0.0 - Mostly clear 10 - - - -
22/12:00pm 13.5 WSW 8 10 1014.2 R 0.0 Haze Mostly clear 25 - - - -
22/11:30am 14.3 W 9 10 1014.5 - 0.0 - Mostly clear 10 - - - -
22/11:00am 14.8 WSW 4 9 1014.5 - 0.0 - Mostly clear 10 - - - -
22/10:30am 13.6 NW 3 5 1014.6 - 0.0 - Mostly clear 10 - - - -
22/10:00am 13.9 N 5 6 1014.6 - 0.0 - - 10 - - - -
22/09:30am 12.9 N 7 8 1014.6 - 0.0 - - 10 - - - -
22/09:00am 11.8 N 6 8 1014.4 F 0.0 Haze Mostly clear 25 - - - -
22/08:30am 9.8 N 5 6 1014.3 - 0.0 - - 10 - - - -
22/08:00am 8.4 CALM 0 0 1014.0 - 0.0 - - 10 - - - -
22/07:30am 6.0 ESE 2 3 1013.6 - 0.0 - - 10 - - - -

Other Formats:

Comma delimited format used in spreadsheet applications
http://www.bom.gov.au/fwo/IDS60701/IDS60701.94672.axf

JavaScript Object Notation format (JSON) in row-major order
http://www.bom.gov.au/fwo/IDS60701/IDS60701.94672.json